sensor_id;sensor_type;location;lat;lon;timestamp;temperature;humidity
81222;DHT22;70691;52.492;13.420;2023-09-12T00:02:04;23.50;53.00
81222;DHT22;70691;52.492;13.420;2023-09-12T00:04:30;23.50;53.30
81222;DHT22;70691;52.492;13.420;2023-09-12T00:06:55;23.50;53.40
81222;DHT22;70691;52.492;13.420;2023-09-12T00:09:21;23.40;53.20
81222;DHT22;70691;52.492;13.420;2023-09-12T00:11:47;23.40;53.20
81222;DHT22;70691;52.492;13.420;2023-09-12T00:14:16;23.40;53.30
81222;DHT22;70691;52.492;13.420;2023-09-12T00:16:43;23.40;53.30
81222;DHT22;70691;52.492;13.420;2023-09-12T00:19:08;23.30;52.90
81222;DHT22;70691;52.492;13.420;2023-09-12T00:21:34;23.30;51.70
81222;DHT22;70691;52.492;13.420;2023-09-12T00:23:59;23.40;51.40
81222;DHT22;70691;52.492;13.420;2023-09-12T00:26:25;23.30;50.00
81222;DHT22;70691;52.492;13.420;2023-09-12T00:28:51;23.30;50.40
81222;DHT22;70691;52.492;13.420;2023-09-12T00:31:16;23.30;50.40
81222;DHT22;70691;52.492;13.420;2023-09-12T00:33:42;23.30;50.30
81222;DHT22;70691;52.492;13.420;2023-09-12T00:36:07;23.40;50.20
81222;DHT22;70691;52.492;13.420;2023-09-12T00:38:33;23.40;50.00
81222;DHT22;70691;52.492;13.420;2023-09-12T00:40:59;23.30;49.90
81222;DHT22;70691;52.492;13.420;2023-09-12T00:43:24;23.30;49.70
81222;DHT22;70691;52.492;13.420;2023-09-12T00:45:50;23.30;49.60
81222;DHT22;70691;52.492;13.420;2023-09-12T00:48:17;23.30;49.50
81222;DHT22;70691;52.492;13.420;2023-09-12T00:50:43;23.20;49.40
81222;DHT22;70691;52.492;13.420;2023-09-12T00:53:10;23.20;49.10
81222;DHT22;70691;52.492;13.420;2023-09-12T00:55:37;23.20;49.00
81222;DHT22;70691;52.492;13.420;2023-09-12T00:58:05;23.20;49.10
81222;DHT22;70691;52.492;13.420;2023-09-12T01:00:33;23.10;49.20
81222;DHT22;70691;52.492;13.420;2023-09-12T01:02:59;23.10;49.30
81222;DHT22;70691;52.492;13.420;2023-09-12T01:05:24;23.00;49.70
81222;DHT22;70691;52.492;13.420;2023-09-12T01:07:50;23.00;49.50
81222;DHT22;70691;52.492;13.420;2023-09-12T01:10:16;23.00;49.60
81222;DHT22;70691;52.492;13.420;2023-09-12T01:12:42;23.00;49.70
81222;DHT22;70691;52.492;13.420;2023-09-12T01:15:08;23.00;49.60
81222;DHT22;70691;52.492;13.420;2023-09-12T01:17:42;23.00;49.50
81222;DHT22;70691;52.492;13.420;2023-09-12T01:20:14;23.00;49.60
81222;DHT22;70691;52.492;13.420;2023-09-12T01:28:00;23.00;50.90
81222;DHT22;70691;52.492;13.420;2023-09-12T01:30:28;22.90;49.90
81222;DHT22;70691;52.492;13.420;2023-09-12T01:32:57;22.80;50.10
81222;DHT22;70691;52.492;13.420;2023-09-12T01:35:22;22.80;50.20
81222;DHT22;70691;52.492;13.420;2023-09-12T01:37:48;22.80;50.40
81222;DHT22;70691;52.492;13.420;2023-09-12T01:40:13;22.80;50.50
81222;DHT22;70691;52.492;13.420;2023-09-12T01:42:43;22.80;50.40
81222;DHT22;70691;52.492;13.420;2023-09-12T01:45:13;22.80;51.40
81222;DHT22;70691;52.492;13.420;2023-09-12T01:47:40;22.70;50.50
81222;DHT22;70691;52.492;13.420;2023-09-12T01:50:09;22.70;50.50
81222;DHT22;70691;52.492;13.420;2023-09-12T01:52:36;22.70;50.60
81222;DHT22;70691;52.492;13.420;2023-09-12T01:55:03;22.70;50.70
81222;DHT22;70691;52.492;13.420;2023-09-12T01:57:29;22.70;50.40
81222;DHT22;70691;52.492;13.420;2023-09-12T01:59:55;22.70;50.40
81222;DHT22;70691;52.492;13.420;2023-09-12T02:02:20;22.70;50.50
81222;DHT22;70691;52.492;13.420;2023-09-12T02:04:55;22.60;50.50
81222;DHT22;70691;52.492;13.420;2023-09-12T02:07:24;22.70;50.50
81222;DHT22;70691;52.492;13.420;2023-09-12T02:09:51;22.60;50.30
81222;DHT22;70691;52.492;13.420;2023-09-12T02:12:16;22.60;50.30
81222;DHT22;70691;52.492;13.420;2023-09-12T02:14:43;22.60;50.40
81222;DHT22;70691;52.492;13.420;2023-09-12T02:17:08;22.60;50.40
81222;DHT22;70691;52.492;13.420;2023-09-12T02:19:34;22.50;50.30
81222;DHT22;70691;52.492;13.420;2023-09-12T02:21:59;22.50;50.20
81222;DHT22;70691;52.492;13.420;2023-09-12T02:24:25;22.50;50.30
81222;DHT22;70691;52.492;13.420;2023-09-12T02:26:51;22.50;50.30
81222;DHT22;70691;52.492;13.420;2023-09-12T02:29:16;22.50;50.30
81222;DHT22;70691;52.492;13.420;2023-09-12T02:31:42;22.50;51.40
81222;DHT22;70691;52.492;13.420;2023-09-12T02:34:08;22.50;50.70
81222;DHT22;70691;52.492;13.420;2023-09-12T02:36:33;22.50;50.70
81222;DHT22;70691;52.492;13.420;2023-09-12T02:38:59;22.50;50.70
81222;DHT22;70691;52.492;13.420;2023-09-12T02:41:24;22.50;50.90
81222;DHT22;70691;52.492;13.420;2023-09-12T02:43:50;22.50;51.40
81222;DHT22;70691;52.492;13.420;2023-09-12T02:46:16;22.50;51.90
81222;DHT22;70691;52.492;13.420;2023-09-12T02:48:41;22.50;52.40
81222;DHT22;70691;52.492;13.420;2023-09-12T02:51:07;22.50;52.60
81222;DHT22;70691;52.492;13.420;2023-09-12T02:53:33;22.50;53.00
81222;DHT22;70691;52.492;13.420;2023-09-12T02:55:58;22.50;53.30
81222;DHT22;70691;52.492;13.420;2023-09-12T02:58:24;22.50;53.80
81222;DHT22;70691;52.492;13.420;2023-09-12T03:00:49;22.50;53.90
81222;DHT22;70691;52.492;13.420;2023-09-12T03:03:19;22.50;54.20
81222;DHT22;70691;52.492;13.420;2023-09-12T03:05:45;22.50;54.50
81222;DHT22;70691;52.492;13.420;2023-09-12T03:08:11;22.40;54.90
81222;DHT22;70691;52.492;13.420;2023-09-12T03:10:36;22.40;55.20
81222;DHT22;70691;52.492;13.420;2023-09-12T03:13:02;22.40;55.30
81222;DHT22;70691;52.492;13.420;2023-09-12T03:15:28;22.40;55.40
81222;DHT22;70691;52.492;13.420;2023-09-12T03:17:54;22.40;55.50
81222;DHT22;70691;52.492;13.420;2023-09-12T03:20:19;22.30;55.80
81222;DHT22;70691;52.492;13.420;2023-09-12T03:22:46;22.30;56.00
81222;DHT22;70691;52.492;13.420;2023-09-12T03:25:11;22.30;56.10
81222;DHT22;70691;52.492;13.420;2023-09-12T03:27:38;22.20;56.30
81222;DHT22;70691;52.492;13.420;2023-09-12T03:30:05;22.30;56.20
81222;DHT22;70691;52.492;13.420;2023-09-12T03:32:31;22.30;56.20
81222;DHT22;70691;52.492;13.420;2023-09-12T03:34:56;22.30;56.30
81222;DHT22;70691;52.492;13.420;2023-09-12T03:37:22;22.20;56.50
81222;DHT22;70691;52.492;13.420;2023-09-12T03:39:48;22.20;56.50
81222;DHT22;70691;52.492;13.420;2023-09-12T03:42:13;22.20;56.50
81222;DHT22;70691;52.492;13.420;2023-09-12T03:44:39;22.20;56.30
81222;DHT22;70691;52.492;13.420;2023-09-12T03:47:04;22.20;56.40
81222;DHT22;70691;52.492;13.420;2023-09-12T03:49:30;22.20;56.30
81222;DHT22;70691;52.492;13.420;2023-09-12T03:51:56;22.20;56.40
81222;DHT22;70691;52.492;13.420;2023-09-12T03:54:21;22.20;56.50
81222;DHT22;70691;52.492;13.420;2023-09-12T03:56:47;22.20;56.60
81222;DHT22;70691;52.492;13.420;2023-09-12T03:59:13;22.20;56.60
81222;DHT22;70691;52.492;13.420;2023-09-12T04:01:38;22.10;56.70
81222;DHT22;70691;52.492;13.420;2023-09-12T04:04:04;22.10;56.60
81222;DHT22;70691;52.492;13.420;2023-09-12T04:06:29;22.00;57.10
81222;DHT22;70691;52.492;13.420;2023-09-12T04:08:55;21.90;57.10
81222;DHT22;70691;52.492;13.420;2023-09-12T04:11:21;21.90;57.10
81222;DHT22;70691;52.492;13.420;2023-09-12T04:13:46;21.90;57.10
81222;DHT22;70691;52.492;13.420;2023-09-12T04:16:12;21.90;57.20
81222;DHT22;70691;52.492;13.420;2023-09-12T04:18:38;22.00;57.20
81222;DHT22;70691;52.492;13.420;2023-09-12T04:21:04;22.00;57.20
81222;DHT22;70691;52.492;13.420;2023-09-12T04:23:29;22.00;57.10
81222;DHT22;70691;52.492;13.420;2023-09-12T04:25:55;22.00;57.00
81222;DHT22;70691;52.492;13.420;2023-09-12T04:28:21;22.00;57.00
81222;DHT22;70691;52.492;13.420;2023-09-12T04:30:46;22.00;57.00
81222;DHT22;70691;52.492;13.420;2023-09-12T04:33:12;22.00;56.80
81222;DHT22;70691;52.492;13.420;2023-09-12T04:35:38;22.00;56.70
81222;DHT22;70691;52.492;13.420;2023-09-12T04:38:03;21.90;56.60
81222;DHT22;70691;52.492;13.420;2023-09-12T04:40:29;21.90;56.60
81222;DHT22;70691;52.492;13.420;2023-09-12T04:42:55;21.90;56.70
81222;DHT22;70691;52.492;13.420;2023-09-12T04:45:21;21.90;56.90
81222;DHT22;70691;52.492;13.420;2023-09-12T04:47:46;21.90;57.10
81222;DHT22;70691;52.492;13.420;2023-09-12T04:50:12;21.90;57.20
81222;DHT22;70691;52.492;13.420;2023-09-12T04:52:38;21.90;57.40
81222;DHT22;70691;52.492;13.420;2023-09-12T04:55:04;21.90;57.30
81222;DHT22;70691;52.492;13.420;2023-09-12T04:57:30;21.90;58.30
81222;DHT22;70691;52.492;13.420;2023-09-12T04:59:56;21.90;57.30
81222;DHT22;70691;52.492;13.420;2023-09-12T05:02:24;21.90;57.30
81222;DHT22;70691;52.492;13.420;2023-09-12T05:04:49;21.90;57.30
81222;DHT22;70691;52.492;13.420;2023-09-12T05:07:15;21.90;57.30
81222;DHT22;70691;52.492;13.420;2023-09-12T05:09:41;21.90;57.20
81222;DHT22;70691;52.492;13.420;2023-09-12T05:12:07;21.90;57.40
81222;DHT22;70691;52.492;13.420;2023-09-12T05:14:32;21.90;57.50
81222;DHT22;70691;52.492;13.420;2023-09-12T05:16:58;21.90;57.20
81222;DHT22;70691;52.492;13.420;2023-09-12T05:19:23;22.00;56.70
81222;DHT22;70691;52.492;13.420;2023-09-12T05:21:51;22.00;56.80
81222;DHT22;70691;52.492;13.420;2023-09-12T05:24:16;22.20;56.80
81222;DHT22;70691;52.492;13.420;2023-09-12T05:26:42;22.20;56.60
81222;DHT22;70691;52.492;13.420;2023-09-12T05:29:08;22.30;55.60
81222;DHT22;70691;52.492;13.420;2023-09-12T05:31:33;22.30;54.10
81222;DHT22;70691;52.492;13.420;2023-09-12T05:33:59;22.40;53.20
81222;DHT22;70691;52.492;13.420;2023-09-12T05:36:24;22.40;52.90
81222;DHT22;70691;52.492;13.420;2023-09-12T05:38:50;22.50;53.40
81222;DHT22;70691;52.492;13.420;2023-09-12T05:41:16;22.50;52.00
81222;DHT22;70691;52.492;13.420;2023-09-12T05:43:41;22.60;51.40
81222;DHT22;70691;52.492;13.420;2023-09-12T05:46:07;22.60;51.20
81222;DHT22;70691;52.492;13.420;2023-09-12T05:48:33;22.70;51.30
81222;DHT22;70691;52.492;13.420;2023-09-12T05:50:58;22.60;51.50
81222;DHT22;70691;52.492;13.420;2023-09-12T05:53:24;22.60;51.70
81222;DHT22;70691;52.492;13.420;2023-09-12T05:55:49;22.60;51.30
81222;DHT22;70691;52.492;13.420;2023-09-12T05:58:15;22.70;51.40
81222;DHT22;70691;52.492;13.420;2023-09-12T06:00:41;22.70;51.40
81222;DHT22;70691;52.492;13.420;2023-09-12T06:03:06;22.70;51.10
81222;DHT22;70691;52.492;13.420;2023-09-12T06:05:32;22.80;51.20
81222;DHT22;70691;52.492;13.420;2023-09-12T06:07:58;22.90;50.90
81222;DHT22;70691;52.492;13.420;2023-09-12T06:10:23;23.00;50.50
81222;DHT22;70691;52.492;13.420;2023-09-12T06:12:49;23.00;50.20
81222;DHT22;70691;52.492;13.420;2023-09-12T06:15:15;23.10;50.00
81222;DHT22;70691;52.492;13.420;2023-09-12T06:17:41;23.10;49.80
81222;DHT22;70691;52.492;13.420;2023-09-12T06:20:07;23.20;49.40
81222;DHT22;70691;52.492;13.420;2023-09-12T06:22:32;23.30;50.30
81222;DHT22;70691;52.492;13.420;2023-09-12T06:24:59;23.30;49.30
81222;DHT22;70691;52.492;13.420;2023-09-12T06:27:25;23.30;49.30
81222;DHT22;70691;52.492;13.420;2023-09-12T06:29:50;23.40;49.40
81222;DHT22;70691;52.492;13.420;2023-09-12T06:32:17;23.40;49.50
81222;DHT22;70691;52.492;13.420;2023-09-12T06:34:43;23.50;49.50
81222;DHT22;70691;52.492;13.420;2023-09-12T06:37:10;23.50;49.40
81222;DHT22;70691;52.492;13.420;2023-09-12T06:39:36;23.60;49.30
81222;DHT22;70691;52.492;13.420;2023-09-12T06:42:02;23.70;48.80
81222;DHT22;70691;52.492;13.420;2023-09-12T06:44:27;23.80;48.90
81222;DHT22;70691;52.492;13.420;2023-09-12T06:46:53;23.90;48.90
81222;DHT22;70691;52.492;13.420;2023-09-12T06:49:18;24.00;48.80
81222;DHT22;70691;52.492;13.420;2023-09-12T06:51:44;24.00;48.50
81222;DHT22;70691;52.492;13.420;2023-09-12T06:54:10;24.20;48.30
81222;DHT22;70691;52.492;13.420;2023-09-12T06:56:35;24.30;48.00
81222;DHT22;70691;52.492;13.420;2023-09-12T06:59:03;24.40;47.80
81222;DHT22;70691;52.492;13.420;2023-09-12T07:01:30;24.50;47.70
81222;DHT22;70691;52.492;13.420;2023-09-12T07:03:55;24.50;47.60
81222;DHT22;70691;52.492;13.420;2023-09-12T07:06:22;24.60;47.40
81222;DHT22;70691;52.492;13.420;2023-09-12T07:08:48;24.70;47.20
81222;DHT22;70691;52.492;13.420;2023-09-12T07:11:14;24.90;46.90
81222;DHT22;70691;52.492;13.420;2023-09-12T07:13:39;24.90;46.70
81222;DHT22;70691;52.492;13.420;2023-09-12T07:16:05;24.90;46.60
81222;DHT22;70691;52.492;13.420;2023-09-12T07:18:31;25.00;46.00
81222;DHT22;70691;52.492;13.420;2023-09-12T07:21:03;25.00;45.30
81222;DHT22;70691;52.492;13.420;2023-09-12T07:23:29;25.10;45.50
81222;DHT22;70691;52.492;13.420;2023-09-12T07:25:56;25.20;45.00
81222;DHT22;70691;52.492;13.420;2023-09-12T07:28:29;25.20;45.30
81222;DHT22;70691;52.492;13.420;2023-09-12T07:30:55;25.20;45.60
81222;DHT22;70691;52.492;13.420;2023-09-12T07:33:21;25.30;45.60
81222;DHT22;70691;52.492;13.420;2023-09-12T07:35:47;25.30;45.60
81222;DHT22;70691;52.492;13.420;2023-09-12T07:38:14;25.50;44.90
81222;DHT22;70691;52.492;13.420;2023-09-12T07:40:42;25.60;44.10
81222;DHT22;70691;52.492;13.420;2023-09-12T07:43:08;25.70;43.90
81222;DHT22;70691;52.492;13.420;2023-09-12T07:45:35;25.80;44.50
81222;DHT22;70691;52.492;13.420;2023-09-12T07:48:08;25.70;44.50
81222;DHT22;70691;52.492;13.420;2023-09-12T07:50:34;25.80;44.60
81222;DHT22;70691;52.492;13.420;2023-09-12T07:52:59;25.90;44.30
81222;DHT22;70691;52.492;13.420;2023-09-12T07:55:25;25.90;45.40
81222;DHT22;70691;52.492;13.420;2023-09-12T07:57:51;26.00;44.40
81222;DHT22;70691;52.492;13.420;2023-09-12T08:00:17;26.10;44.10
81222;DHT22;70691;52.492;13.420;2023-09-12T08:02:42;26.20;43.80
81222;DHT22;70691;52.492;13.420;2023-09-12T08:05:08;26.20;43.80
81222;DHT22;70691;52.492;13.420;2023-09-12T08:07:34;26.30;43.80
81222;DHT22;70691;52.492;13.420;2023-09-12T08:10:00;26.40;44.60
81222;DHT22;70691;52.492;13.420;2023-09-12T08:12:27;26.40;45.00
81222;DHT22;70691;52.492;13.420;2023-09-12T08:14:54;26.60;43.50
81222;DHT22;70691;52.492;13.420;2023-09-12T08:17:21;26.70;43.40
81222;DHT22;70691;52.492;13.420;2023-09-12T08:19:47;26.70;43.50
81222;DHT22;70691;52.492;13.420;2023-09-12T08:22:13;26.80;43.50
81222;DHT22;70691;52.492;13.420;2023-09-12T08:24:39;26.80;43.50
81222;DHT22;70691;52.492;13.420;2023-09-12T08:27:05;26.90;43.60
81222;DHT22;70691;52.492;13.420;2023-09-12T08:29:31;27.00;43.50
81222;DHT22;70691;52.492;13.420;2023-09-12T08:31:58;27.00;42.70
81222;DHT22;70691;52.492;13.420;2023-09-12T08:34:24;27.10;42.90
81222;DHT22;70691;52.492;13.420;2023-09-12T08:36:50;27.10;42.80
81222;DHT22;70691;52.492;13.420;2023-09-12T08:39:18;27.30;41.80
81222;DHT22;70691;52.492;13.420;2023-09-12T08:41:44;27.30;41.80
81222;DHT22;70691;52.492;13.420;2023-09-12T08:44:12;27.50;41.10
81222;DHT22;70691;52.492;13.420;2023-09-12T08:46:40;27.50;40.70
81222;DHT22;70691;52.492;13.420;2023-09-12T08:49:07;27.60;40.90
81222;DHT22;70691;52.492;13.420;2023-09-12T08:51:38;27.60;40.40
81222;DHT22;70691;52.492;13.420;2023-09-12T08:54:05;27.80;39.40
81222;DHT22;70691;52.492;13.420;2023-09-12T08:56:32;27.90;39.70
81222;DHT22;70691;52.492;13.420;2023-09-12T08:59:00;27.90;40.50
81222;DHT22;70691;52.492;13.420;2023-09-12T09:01:28;27.90;40.20
81222;DHT22;70691;52.492;13.420;2023-09-12T09:03:55;28.00;39.50
81222;DHT22;70691;52.492;13.420;2023-09-12T09:06:22;28.00;40.00
81222;DHT22;70691;52.492;13.420;2023-09-12T09:08:49;28.20;38.90
81222;DHT22;70691;52.492;13.420;2023-09-12T09:11:16;28.20;39.20
81222;DHT22;70691;52.492;13.420;2023-09-12T09:13:42;28.50;38.30
81222;DHT22;70691;52.492;13.420;2023-09-12T09:16:16;28.60;38.50
81222;DHT22;70691;52.492;13.420;2023-09-12T09:18:59;28.40;39.50
81222;DHT22;70691;52.492;13.420;2023-09-12T09:21:27;28.50;39.10
81222;DHT22;70691;52.492;13.420;2023-09-12T09:23:55;28.70;38.50
81222;DHT22;70691;52.492;13.420;2023-09-12T09:26:21;28.90;38.50
81222;DHT22;70691;52.492;13.420;2023-09-12T09:29:07;29.00;38.80
81222;DHT22;70691;52.492;13.420;2023-09-12T09:31:34;28.70;39.60
81222;DHT22;70691;52.492;13.420;2023-09-12T09:34:00;28.80;39.60
81222;DHT22;70691;52.492;13.420;2023-09-12T09:36:27;28.70;39.70
81222;DHT22;70691;52.492;13.420;2023-09-12T09:38:53;28.70;40.20
81222;DHT22;70691;52.492;13.420;2023-09-12T09:41:22;28.70;41.00
81222;DHT22;70691;52.492;13.420;2023-09-12T09:43:51;28.60;41.00
81222;DHT22;70691;52.492;13.420;2023-09-12T09:46:18;28.80;41.00
81222;DHT22;70691;52.492;13.420;2023-09-12T09:48:50;28.80;42.00
81222;DHT22;70691;52.492;13.420;2023-09-12T09:51:16;28.70;40.90
81222;DHT22;70691;52.492;13.420;2023-09-12T09:53:42;28.70;41.10
81222;DHT22;70691;52.492;13.420;2023-09-12T09:56:13;28.60;41.80
81222;DHT22;70691;52.492;13.420;2023-09-12T09:58:48;28.70;42.00
81222;DHT22;70691;52.492;13.420;2023-09-12T10:01:21;28.80;41.40
81222;DHT22;70691;52.492;13.420;2023-09-12T10:03:48;28.80;41.70
81222;DHT22;70691;52.492;13.420;2023-09-12T10:06:15;28.70;42.20
81222;DHT22;70691;52.492;13.420;2023-09-12T10:08:45;28.50;43.00
81222;DHT22;70691;52.492;13.420;2023-09-12T10:11:15;28.50;42.70
81222;DHT22;70691;52.492;13.420;2023-09-12T10:13:46;28.60;42.80
81222;DHT22;70691;52.492;13.420;2023-09-12T10:16:16;28.60;42.40
81222;DHT22;70691;52.492;13.420;2023-09-12T10:18:49;28.60;42.60
81222;DHT22;70691;52.492;13.420;2023-09-12T10:21:28;28.40;43.40
81222;DHT22;70691;52.492;13.420;2023-09-12T10:23:56;28.40;43.60
81222;DHT22;70691;52.492;13.420;2023-09-12T10:26:23;28.40;43.90
81222;DHT22;70691;52.492;13.420;2023-09-12T10:28:50;28.60;43.20
81222;DHT22;70691;52.492;13.420;2023-09-12T10:31:17;28.60;42.50
81222;DHT22;70691;52.492;13.420;2023-09-12T10:33:43;28.60;43.20
81222;DHT22;70691;52.492;13.420;2023-09-12T10:36:11;28.50;43.20
81222;DHT22;70691;52.492;13.420;2023-09-12T10:38:42;28.70;42.50
81222;DHT22;70691;52.492;13.420;2023-09-12T10:41:12;28.80;42.40
81222;DHT22;70691;52.492;13.420;2023-09-12T10:43:40;28.90;41.70
81222;DHT22;70691;52.492;13.420;2023-09-12T10:46:08;28.80;42.10
81222;DHT22;70691;52.492;13.420;2023-09-12T10:48:35;29.00;42.20
81222;DHT22;70691;52.492;13.420;2023-09-12T10:51:01;29.10;41.20
81222;DHT22;70691;52.492;13.420;2023-09-12T10:53:30;29.30;40.30
81222;DHT22;70691;52.492;13.420;2023-09-12T10:56:14;29.40;39.50
81222;DHT22;70691;52.492;13.420;2023-09-12T11:01:42;29.40;39.70
81222;DHT22;70691;52.492;13.420;2023-09-12T11:06:46;29.20;39.70
81222;DHT22;70691;52.492;13.420;2023-09-12T11:09:23;29.40;39.70
81222;DHT22;70691;52.492;13.420;2023-09-12T11:14:21;29.70;39.30
81222;DHT22;70691;52.492;13.420;2023-09-12T11:19:46;29.90;38.90
81222;DHT22;70691;52.492;13.420;2023-09-12T11:24:47;30.00;38.70
81222;DHT22;70691;52.492;13.420;2023-09-12T11:27:13;30.00;38.90
81222;DHT22;70691;52.492;13.420;2023-09-12T11:29:39;30.10;38.50
81222;DHT22;70691;52.492;13.420;2023-09-12T11:32:06;30.00;39.40
81222;DHT22;70691;52.492;13.420;2023-09-12T11:34:42;29.90;39.90
81222;DHT22;70691;52.492;13.420;2023-09-12T11:37:09;30.00;40.20
81222;DHT22;70691;52.492;13.420;2023-09-12T11:39:36;30.10;39.80
81222;DHT22;70691;52.492;13.420;2023-09-12T11:42:03;30.20;38.70
81222;DHT22;70691;52.492;13.420;2023-09-12T11:44:30;30.40;38.60
81222;DHT22;70691;52.492;13.420;2023-09-12T11:47:00;30.30;39.30
81222;DHT22;70691;52.492;13.420;2023-09-12T11:49:38;30.30;38.90
81222;DHT22;70691;52.492;13.420;2023-09-12T11:52:09;30.40;39.10
81222;DHT22;70691;52.492;13.420;2023-09-12T11:54:35;30.30;38.70
81222;DHT22;70691;52.492;13.420;2023-09-12T11:57:02;30.50;38.90
81222;DHT22;70691;52.492;13.420;2023-09-12T11:59:31;30.50;38.10
81222;DHT22;70691;52.492;13.420;2023-09-12T12:01:57;30.60;38.20
81222;DHT22;70691;52.492;13.420;2023-09-12T12:04:24;30.40;38.00
81222;DHT22;70691;52.492;13.420;2023-09-12T12:06:53;30.30;39.80
81222;DHT22;70691;52.492;13.420;2023-09-12T12:09:19;30.30;39.10
81222;DHT22;70691;52.492;13.420;2023-09-12T12:11:45;30.30;38.30
81222;DHT22;70691;52.492;13.420;2023-09-12T12:16:37;30.10;39.20
81222;DHT22;70691;52.492;13.420;2023-09-12T12:19:03;30.00;40.10
81222;DHT22;70691;52.492;13.420;2023-09-12T12:21:28;29.90;40.00
81222;DHT22;70691;52.492;13.420;2023-09-12T12:23:59;30.10;39.00
81222;DHT22;70691;52.492;13.420;2023-09-12T12:26:25;30.20;39.00
81222;DHT22;70691;52.492;13.420;2023-09-12T12:28:52;30.30;38.20
81222;DHT22;70691;52.492;13.420;2023-09-12T12:31:18;30.40;37.80
81222;DHT22;70691;52.492;13.420;2023-09-12T12:33:53;30.30;38.10
81222;DHT22;70691;52.492;13.420;2023-09-12T12:36:20;30.40;38.30
81222;DHT22;70691;52.492;13.420;2023-09-12T12:38:47;30.50;37.40
81222;DHT22;70691;52.492;13.420;2023-09-12T12:41:21;30.60;37.10
81222;DHT22;70691;52.492;13.420;2023-09-12T12:43:50;30.50;37.90
81222;DHT22;70691;52.492;13.420;2023-09-12T12:46:20;30.40;37.40
81222;DHT22;70691;52.492;13.420;2023-09-12T12:48:47;30.40;37.40
81222;DHT22;70691;52.492;13.420;2023-09-12T12:51:15;30.60;36.80
81222;DHT22;70691;52.492;13.420;2023-09-12T12:53:47;30.60;37.50
81222;DHT22;70691;52.492;13.420;2023-09-12T12:56:18;30.70;37.40
81222;DHT22;70691;52.492;13.420;2023-09-12T12:58:57;30.80;36.80
81222;DHT22;70691;52.492;13.420;2023-09-12T13:01:23;30.70;36.20
81222;DHT22;70691;52.492;13.420;2023-09-12T13:03:49;30.60;37.30
81222;DHT22;70691;52.492;13.420;2023-09-12T13:06:16;30.60;37.90
81222;DHT22;70691;52.492;13.420;2023-09-12T13:08:44;30.60;38.00
81222;DHT22;70691;52.492;13.420;2023-09-12T13:11:12;30.60;37.30
81222;DHT22;70691;52.492;13.420;2023-09-12T13:13:38;30.70;36.80
81222;DHT22;70691;52.492;13.420;2023-09-12T13:16:05;30.90;35.60
81222;DHT22;70691;52.492;13.420;2023-09-12T13:18:32;31.10;35.30
81222;DHT22;70691;52.492;13.420;2023-09-12T13:20:58;31.10;35.40
81222;DHT22;70691;52.492;13.420;2023-09-12T13:23:23;31.20;34.80
81222;DHT22;70691;52.492;13.420;2023-09-12T13:25:50;31.00;35.70
81222;DHT22;70691;52.492;13.420;2023-09-12T13:28:16;30.90;35.90
81222;DHT22;70691;52.492;13.420;2023-09-12T13:30:42;30.90;36.10
81222;DHT22;70691;52.492;13.420;2023-09-12T13:33:08;30.90;36.10
81222;DHT22;70691;52.492;13.420;2023-09-12T13:35:34;30.80;35.00
81222;DHT22;70691;52.492;13.420;2023-09-12T13:38:00;31.00;35.00
81222;DHT22;70691;52.492;13.420;2023-09-12T13:40:25;31.00;35.30
81222;DHT22;70691;52.492;13.420;2023-09-12T13:42:53;31.00;35.70
81222;DHT22;70691;52.492;13.420;2023-09-12T13:45:18;31.00;36.10
81222;DHT22;70691;52.492;13.420;2023-09-12T13:47:44;31.00;36.00
81222;DHT22;70691;52.492;13.420;2023-09-12T13:50:10;31.10;34.80
81222;DHT22;70691;52.492;13.420;2023-09-12T13:52:35;31.10;34.90
81222;DHT22;70691;52.492;13.420;2023-09-12T13:55:01;31.20;35.10
81222;DHT22;70691;52.492;13.420;2023-09-12T13:57:29;31.20;35.10
81222;DHT22;70691;52.492;13.420;2023-09-12T13:59:54;31.20;35.30
81222;DHT22;70691;52.492;13.420;2023-09-12T14:02:20;31.20;35.60
81222;DHT22;70691;52.492;13.420;2023-09-12T14:04:46;31.30;34.70
81222;DHT22;70691;52.492;13.420;2023-09-12T14:07:11;31.30;35.10
81222;DHT22;70691;52.492;13.420;2023-09-12T14:09:37;31.40;35.20
81222;DHT22;70691;52.492;13.420;2023-09-12T14:12:03;31.40;34.90
81222;DHT22;70691;52.492;13.420;2023-09-12T14:14:28;31.70;32.90
81222;DHT22;70691;52.492;13.420;2023-09-12T14:16:54;31.70;34.20
81222;DHT22;70691;52.492;13.420;2023-09-12T14:19:20;31.40;34.90
81222;DHT22;70691;52.492;13.420;2023-09-12T14:21:45;31.20;34.40
81222;DHT22;70691;52.492;13.420;2023-09-12T14:24:11;31.20;34.80
81222;DHT22;70691;52.492;13.420;2023-09-12T14:26:37;31.30;35.30
81222;DHT22;70691;52.492;13.420;2023-09-12T14:29:03;31.40;34.20
81222;DHT22;70691;52.492;13.420;2023-09-12T14:31:29;31.20;35.10
81222;DHT22;70691;52.492;13.420;2023-09-12T14:33:54;31.10;35.10
81222;DHT22;70691;52.492;13.420;2023-09-12T14:36:20;31.20;34.80
81222;DHT22;70691;52.492;13.420;2023-09-12T14:38:45;31.10;34.20
81222;DHT22;70691;52.492;13.420;2023-09-12T14:41:12;31.20;34.00
81222;DHT22;70691;52.492;13.420;2023-09-12T14:43:38;31.20;34.50
81222;DHT22;70691;52.492;13.420;2023-09-12T14:46:04;31.00;35.60
81222;DHT22;70691;52.492;13.420;2023-09-12T14:48:31;31.00;35.00
81222;DHT22;70691;52.492;13.420;2023-09-12T14:50:59;31.20;34.50
81222;DHT22;70691;52.492;13.420;2023-09-12T14:53:26;31.10;35.40
81222;DHT22;70691;52.492;13.420;2023-09-12T14:55:53;31.00;36.00
81222;DHT22;70691;52.492;13.420;2023-09-12T14:58:19;31.10;36.60
81222;DHT22;70691;52.492;13.420;2023-09-12T15:00:44;31.00;37.40
81222;DHT22;70691;52.492;13.420;2023-09-12T15:03:10;30.70;38.70
81222;DHT22;70691;52.492;13.420;2023-09-12T15:05:36;30.50;38.90
81222;DHT22;70691;52.492;13.420;2023-09-12T15:08:01;30.10;38.60
81222;DHT22;70691;52.492;13.420;2023-09-12T15:10:28;29.80;39.90
81222;DHT22;70691;52.492;13.420;2023-09-12T15:12:53;29.50;40.40
81222;DHT22;70691;52.492;13.420;2023-09-12T15:15:19;29.20;40.90
81222;DHT22;70691;52.492;13.420;2023-09-12T15:17:45;29.10;41.50
81222;DHT22;70691;52.492;13.420;2023-09-12T15:20:11;28.90;41.70
81222;DHT22;70691;52.492;13.420;2023-09-12T15:22:37;28.60;42.70
81222;DHT22;70691;52.492;13.420;2023-09-12T15:25:03;28.60;42.40
81222;DHT22;70691;52.492;13.420;2023-09-12T15:27:28;28.60;42.80
81222;DHT22;70691;52.492;13.420;2023-09-12T15:29:55;28.60;42.40
81222;DHT22;70691;52.492;13.420;2023-09-12T15:32:20;28.60;42.40
81222;DHT22;70691;52.492;13.420;2023-09-12T15:34:46;28.40;42.20